createdAt,value
2018-04-28T00:00:32.279Z,-55.00
2018-04-28T00:01:32.287Z,-55.00
2018-04-28T00:02:32.303Z,-55.00
2018-04-28T00:03:32.314Z,-55.00
2018-04-28T00:04:32.325Z,-55.00
2018-04-28T00:05:32.342Z,-55.00
2018-04-28T00:06:32.348Z,-55.00
2018-04-28T00:07:32.373Z,-55.00
2018-04-28T00:08:32.375Z,-55.00
2018-04-28T00:09:32.385Z,-55.00
2018-04-28T00:10:32.390Z,-55.00
2018-04-28T00:11:32.405Z,-55.00
2018-04-28T00:12:32.414Z,-55.00
2018-04-28T00:13:32.421Z,-55.00
2018-04-28T00:14:32.448Z,-55.00
2018-04-28T00:15:32.453Z,-55.00
2018-04-28T00:16:32.458Z,-55.00
2018-04-28T00:17:32.471Z,-55.00
2018-04-28T00:18:32.484Z,-55.00
2018-04-28T00:19:32.490Z,-55.00
2018-04-28T00:20:32.503Z,-55.00
2018-04-28T00:21:32.518Z,-55.00
2018-04-28T00:22:32.524Z,-55.00
2018-04-28T00:23:32.531Z,-55.00
2018-04-28T00:24:32.544Z,-55.00
2018-04-28T00:25:32.575Z,-55.00
2018-04-28T00:26:32.566Z,-55.00
2018-04-28T00:27:32.580Z,-55.00
2018-04-28T00:28:32.592Z,-55.00
2018-04-28T00:29:32.600Z,-55.00
2018-04-28T00:30:32.615Z,-55.00
2018-04-28T00:31:32.627Z,-55.00
2018-04-28T00:32:32.633Z,-55.00
2018-04-28T00:33:32.644Z,-55.00
2018-04-28T00:34:32.653Z,-55.00
2018-04-28T00:35:32.666Z,-55.00
2018-04-28T00:36:32.677Z,-55.00
2018-04-28T00:37:32.696Z,-55.00
2018-04-28T00:38:32.699Z,-55.00
2018-04-28T00:39:32.711Z,-55.00
2018-04-28T00:40:32.720Z,-55.00
2018-04-28T00:41:32.729Z,-55.00
2018-04-28T00:42:32.740Z,-55.00
2018-04-28T00:43:32.756Z,-55.00
2018-04-28T00:44:32.763Z,-55.00
2018-04-28T00:45:32.773Z,-55.00
2018-04-28T00:46:32.781Z,-55.00
2018-04-28T00:47:32.795Z,-55.00
2018-04-28T00:48:32.821Z,-55.00
2018-04-28T00:49:32.827Z,-55.00
2018-04-28T00:50:32.830Z,-55.00
2018-04-28T00:51:32.843Z,-55.00
2018-04-28T00:52:32.851Z,-55.00
2018-04-28T00:53:32.867Z,-55.00
2018-04-28T00:54:32.869Z,-55.00
2018-04-28T00:55:32.883Z,-55.00
2018-04-28T00:56:32.895Z,-55.00
2018-04-28T00:57:32.908Z,-55.00
2018-04-28T00:58:32.915Z,-55.00
2018-04-28T00:59:32.941Z,-55.00
2018-04-28T01:00:32.935Z,-55.00
2018-04-28T01:01:32.954Z,-55.00
2018-04-28T01:02:32.978Z,-55.00
2018-04-28T01:03:32.976Z,-55.00
2018-04-28T01:04:32.987Z,-55.00
2018-04-28T01:05:32.991Z,-55.00
2018-04-28T01:06:32.999Z,-55.00
2018-04-28T01:07:33.019Z,-55.00
2018-04-28T01:08:33.024Z,-55.00
2018-04-28T01:09:33.033Z,-55.00
2018-04-28T01:10:33.039Z,-55.00
2018-04-28T01:11:33.056Z,-55.00
2018-04-28T01:12:33.064Z,-55.00
2018-04-28T01:13:33.081Z,-55.00
2018-04-28T01:14:33.088Z,-55.00
2018-04-28T01:15:33.098Z,-55.00
2018-04-28T01:16:33.120Z,-55.00
2018-04-28T01:17:33.123Z,-55.00
2018-04-28T01:18:33.136Z,-55.00
2018-04-28T01:19:33.150Z,-55.00
2018-04-28T01:20:33.154Z,-55.00
2018-04-28T01:21:33.165Z,-55.00
2018-04-28T01:22:33.177Z,-55.00
2018-04-28T01:23:33.186Z,-55.00
2018-04-28T01:24:33.201Z,-55.00
2018-04-28T01:25:33.210Z,-55.00
2018-04-28T01:26:33.221Z,-55.00
2018-04-28T01:27:33.230Z,-55.00
2018-04-28T01:28:33.238Z,-55.00
2018-04-28T01:29:33.254Z,-55.00
2018-04-28T01:30:33.262Z,-55.00
2018-04-28T01:31:33.273Z,-55.00
2018-04-28T01:32:33.282Z,-55.00
2018-04-28T01:33:33.294Z,-55.00
2018-04-28T01:34:33.314Z,-55.00
2018-04-28T01:35:33.313Z,-55.00
2018-04-28T01:36:33.329Z,-55.00
2018-04-28T01:37:33.345Z,-55.00
2018-04-28T01:38:33.348Z,-55.00
2018-04-28T01:39:33.360Z,-55.00
2018-04-28T01:40:33.373Z,-55.00
2018-04-28T01:41:33.381Z,-55.00
2018-04-28T01:42:33.388Z,-55.00
2018-04-28T01:43:33.401Z,-55.00
2018-04-28T01:44:33.415Z,-55.00
2018-04-28T01:45:33.423Z,-55.00
2018-04-28T01:46:33.433Z,-55.00
2018-04-28T01:47:33.448Z,-55.00
2018-04-28T01:48:33.457Z,-55.00
2018-04-28T01:49:33.475Z,-55.00
2018-04-28T01:50:33.484Z,-55.00
2018-04-28T01:51:33.490Z,-55.00
2018-04-28T01:52:33.502Z,-55.00
2018-04-28T01:53:33.508Z,-55.00
2018-04-28T01:54:33.522Z,-55.00
2018-04-28T01:55:33.530Z,-55.00
2018-04-28T01:56:33.546Z,-55.00
2018-04-28T01:57:33.553Z,-55.00
2018-04-28T01:58:33.567Z,-55.00
2018-04-28T01:59:33.575Z,-55.00
2018-04-28T02:00:33.588Z,-55.00
2018-04-28T02:01:33.601Z,-55.00
2018-04-28T02:02:33.609Z,-55.00
2018-04-28T02:03:33.618Z,-55.00
2018-04-28T02:04:33.628Z,-55.00
2018-04-28T02:05:33.645Z,-55.00
2018-04-28T02:06:33.650Z,-55.00
2018-04-28T02:07:33.661Z,-55.00
2018-04-28T02:08:33.678Z,-55.00
2018-04-28T02:09:33.682Z,-55.00
2018-04-28T02:10:33.691Z,-55.00
2018-04-28T02:11:33.703Z,-55.00
2018-04-28T02:12:33.731Z,-55.00
2018-04-28T02:13:33.727Z,-55.00
2018-04-28T02:14:33.736Z,-55.00
2018-04-28T02:15:33.749Z,-55.00
2018-04-28T02:16:33.757Z,-55.00
2018-04-28T02:17:33.774Z,-55.00
2018-04-28T02:18:33.778Z,-55.00
2018-04-28T02:19:33.791Z,-55.00
2018-04-28T02:20:33.804Z,-55.00
2018-04-28T02:21:33.817Z,-55.00
2018-04-28T02:22:33.820Z,-55.00
2018-04-28T02:23:33.830Z,-55.00
2018-04-28T02:24:33.840Z,-55.00
2018-04-28T02:25:33.855Z,-55.00
2018-04-28T02:26:33.867Z,-55.00
2018-04-28T02:27:33.875Z,-55.00
2018-04-28T02:28:33.884Z,-55.00
2018-04-28T02:29:33.908Z,-55.00
2018-04-28T02:30:33.910Z,-55.00
2018-04-28T02:31:33.918Z,-55.00
2018-04-28T02:32:33.929Z,-55.00
2018-04-28T02:33:33.942Z,-55.00
2018-04-28T02:34:33.954Z,-55.00
2018-04-28T02:35:33.961Z,-55.00
2018-04-28T02:36:33.974Z,-55.00
2018-04-28T02:37:33.981Z,-55.00
2018-04-28T02:38:33.995Z,-55.00
2018-04-28T02:39:34.010Z,-55.00
2018-04-28T02:40:34.019Z,-55.00
2018-04-28T02:41:34.029Z,-55.00
2018-04-28T02:42:34.033Z,-55.00
2018-04-28T02:43:34.049Z,-55.00
2018-04-28T02:44:34.064Z,-55.00
2018-04-28T02:45:34.064Z,-55.00
2018-04-28T02:46:34.078Z,-55.00
2018-04-28T02:47:34.089Z,-55.00
2018-04-28T02:48:34.106Z,-55.00
2018-04-28T02:49:34.114Z,-55.00
2018-04-28T02:50:34.131Z,-55.00
2018-04-28T02:51:34.137Z,-55.00
2018-04-28T02:52:34.143Z,-55.00
2018-04-28T02:53:34.153Z,-55.00
2018-04-28T02:54:34.162Z,-55.00
2018-04-28T02:55:34.175Z,-55.00
2018-04-28T02:56:34.183Z,-55.00
2018-04-28T02:57:34.207Z,-55.00
2018-04-28T02:58:34.209Z,-55.00
2018-04-28T02:59:34.223Z,-55.00
2018-04-28T03:00:34.233Z,-55.00
2018-04-28T03:01:34.246Z,-55.00
2018-04-28T03:02:34.250Z,-55.00
2018-04-28T03:03:34.276Z,-55.00
2018-04-28T03:04:34.282Z,-55.00
2018-04-28T03:05:34.301Z,-55.00
2018-04-28T03:06:34.290Z,-55.00
2018-04-28T03:07:34.302Z,-55.00
2018-04-28T03:08:34.311Z,-55.00
2018-04-28T03:09:34.333Z,-55.00
2018-04-28T03:10:34.338Z,-55.00
2018-04-28T03:11:34.339Z,-55.00
2018-04-28T03:12:34.357Z,-55.00
2018-04-28T03:13:34.364Z,-55.00
2018-04-28T03:14:34.383Z,-55.00
2018-04-28T03:15:34.390Z,-55.00
2018-04-28T03:16:34.399Z,-55.00
2018-04-28T03:17:34.411Z,-55.00
2018-04-28T03:18:34.438Z,-55.00
2018-04-28T03:19:34.435Z,-55.00
2018-04-28T03:20:34.438Z,-55.00
2018-04-28T03:21:34.447Z,-55.00
2018-04-28T03:22:34.478Z,-55.00
2018-04-28T03:23:34.466Z,-55.00
2018-04-28T03:24:34.480Z,-55.00
2018-04-28T03:25:34.492Z,-55.00
2018-04-28T03:26:34.501Z,-55.00
2018-04-28T03:27:34.511Z,-55.00
2018-04-28T03:28:34.525Z,-55.00
2018-04-28T03:29:34.535Z,-55.00
2018-04-28T03:30:34.547Z,-55.00
2018-04-28T03:31:34.559Z,-55.00
2018-04-28T03:32:34.564Z,-55.00
2018-04-28T03:33:34.573Z,-55.00
2018-04-28T03:34:34.581Z,-55.00
2018-04-28T03:35:34.595Z,-55.00
2018-04-28T03:36:34.607Z,-55.00
2018-04-28T03:37:34.621Z,-55.00
2018-04-28T03:38:34.627Z,-55.00
2018-04-28T03:39:34.644Z,-55.00
2018-04-28T03:40:34.652Z,-55.00
2018-04-28T03:41:34.662Z,-55.00
2018-04-28T03:42:34.673Z,-55.00
2018-04-28T03:43:34.677Z,-55.00
2018-04-28T03:44:34.695Z,-55.00
2018-04-28T03:45:34.701Z,-55.00
2018-04-28T03:46:34.739Z,-55.00
2018-04-28T03:47:34.716Z,-55.00
2018-04-28T03:48:34.733Z,-55.00
2018-04-28T03:49:34.764Z,-54.00
2018-04-28T03:50:34.759Z,-55.00
2018-04-28T03:51:34.766Z,-55.00
2018-04-28T03:52:34.780Z,-55.00
2018-04-28T03:53:34.794Z,-55.00
2018-04-28T03:54:34.797Z,-55.00
2018-04-28T03:55:34.808Z,-55.00
2018-04-28T03:56:34.810Z,-55.00
2018-04-28T03:57:34.836Z,-55.00
2018-04-28T03:58:34.842Z,-55.00
2018-04-28T03:59:34.858Z,-55.00
2018-04-28T04:00:34.858Z,-55.00
2018-04-28T04:01:34.871Z,-55.00
2018-04-28T04:02:34.880Z,-55.00
2018-04-28T04:03:34.891Z,-55.00
2018-04-28T04:04:34.901Z,-55.00
2018-04-28T04:05:34.919Z,-55.00
2018-04-28T04:06:34.922Z,-55.00
2018-04-28T04:07:34.929Z,-55.00
2018-04-28T04:08:34.939Z,-55.00
2018-04-28T04:09:34.952Z,-55.00
2018-04-28T04:10:34.968Z,-55.00
2018-04-28T04:11:34.974Z,-55.00
2018-04-28T04:12:34.988Z,-55.00
2018-04-28T04:13:34.995Z,-55.00
2018-04-28T04:14:35.002Z,-55.00
2018-04-28T04:15:35.013Z,-55.00
2018-04-28T04:16:35.057Z,-55.00
2018-04-28T04:17:35.036Z,-55.00
2018-04-28T04:18:35.054Z,-55.00
2018-04-28T04:19:35.061Z,-54.00
2018-04-28T04:20:35.067Z,-55.00
2018-04-28T04:21:35.078Z,-55.00
2018-04-28T04:22:35.088Z,-55.00
2018-04-28T04:23:35.105Z,-55.00
2018-04-28T04:24:35.113Z,-55.00
2018-04-28T04:25:35.123Z,-55.00
2018-04-28T04:26:35.224Z,-55.00
2018-04-28T04:27:35.145Z,-55.00
2018-04-28T04:28:35.152Z,-55.00
2018-04-28T04:29:35.157Z,-55.00
2018-04-28T04:30:35.169Z,-55.00
2018-04-28T04:31:35.184Z,-55.00
2018-04-28T04:32:35.194Z,-55.00
2018-04-28T04:33:35.213Z,-55.00
2018-04-28T04:34:35.212Z,-55.00
2018-04-28T04:35:35.224Z,-55.00
2018-04-28T04:36:35.256Z,-55.00
2018-04-28T04:37:35.245Z,-55.00
2018-04-28T04:38:35.258Z,-55.00
2018-04-28T04:39:35.274Z,-55.00
2018-04-28T04:40:35.276Z,-55.00
2018-04-28T04:41:35.411Z,-55.00
2018-04-28T04:42:35.293Z,-55.00
2018-04-28T04:43:35.301Z,-55.00
2018-04-28T04:44:35.320Z,-55.00
2018-04-28T04:45:35.327Z,-55.00
2018-04-28T04:46:35.336Z,-55.00
2018-04-28T04:47:35.349Z,-55.00
2018-04-28T04:48:35.357Z,-55.00
2018-04-28T04:49:35.367Z,-55.00
2018-04-28T04:50:35.377Z,-55.00
2018-04-28T04:51:35.384Z,-55.00
2018-04-28T04:52:35.401Z,-55.00
2018-04-28T04:53:35.411Z,-55.00
2018-04-28T04:54:35.421Z,-55.00
2018-04-28T04:55:35.432Z,-55.00
2018-04-28T04:56:35.442Z,-55.00
2018-04-28T04:57:35.454Z,-55.00
2018-04-28T04:58:35.466Z,-55.00
2018-04-28T04:59:35.471Z,-55.00
2018-04-28T05:00:35.484Z,-55.00
2018-04-28T05:01:35.495Z,-55.00
2018-04-28T05:02:35.496Z,-55.00
2018-04-28T05:03:35.505Z,-55.00
2018-04-28T05:04:35.526Z,-55.00
2018-04-28T05:05:35.532Z,-55.00
2018-04-28T05:06:35.548Z,-55.00
2018-04-28T05:07:35.559Z,-55.00
2018-04-28T05:08:35.601Z,-55.00
2018-04-28T05:09:35.578Z,-55.00
2018-04-28T05:10:35.588Z,-55.00
2018-04-28T05:11:35.599Z,-55.00
2018-04-28T05:12:35.603Z,-55.00
2018-04-28T05:13:35.618Z,-55.00
2018-04-28T05:14:35.622Z,-55.00
2018-04-28T05:15:35.632Z,-55.00
2018-04-28T05:16:35.641Z,-55.00
2018-04-28T05:17:35.665Z,-55.00
2018-04-28T05:18:35.664Z,-55.00
2018-04-28T05:19:35.680Z,-55.00
2018-04-28T05:20:35.689Z,-55.00
2018-04-28T05:21:35.710Z,-55.00
2018-04-28T05:22:35.707Z,-55.00
2018-04-28T05:23:35.721Z,-55.00
2018-04-28T05:24:35.729Z,-55.00
2018-04-28T05:25:35.743Z,-55.00
2018-04-28T05:26:35.748Z,-55.00
2018-04-28T05:27:35.758Z,-55.00
2018-04-28T05:28:35.766Z,-55.00
2018-04-28T05:29:35.783Z,-55.00
2018-04-28T05:30:35.791Z,-55.00
2018-04-28T05:31:35.807Z,-55.00
2018-04-28T05:32:35.813Z,-55.00
2018-04-28T05:33:35.823Z,-55.00
2018-04-28T05:34:35.829Z,-55.00
2018-04-28T05:35:35.843Z,-55.00
2018-04-28T05:36:35.867Z,-55.00
2018-04-28T05:37:35.866Z,-55.00
2018-04-28T05:38:35.870Z,-55.00
2018-04-28T05:39:35.887Z,-55.00
2018-04-28T05:40:35.900Z,-55.00
2018-04-28T05:41:35.903Z,-55.00
2018-04-28T05:42:35.914Z,-55.00
2018-04-28T05:43:35.920Z,-55.00
2018-04-28T05:44:35.935Z,-55.00
2018-04-28T05:45:35.953Z,-55.00
2018-04-28T05:46:35.957Z,-55.00
2018-04-28T05:47:35.968Z,-55.00
2018-04-28T05:48:35.975Z,-55.00
2018-04-28T05:49:35.981Z,-54.00
2018-04-28T05:50:35.995Z,-55.00
2018-04-28T05:51:36.011Z,-55.00
2018-04-28T05:52:36.020Z,-55.00
2018-04-28T05:53:36.028Z,-55.00
2018-04-28T05:54:36.038Z,-55.00
2018-04-28T05:55:36.060Z,-55.00
2018-04-28T05:56:36.081Z,-55.00
2018-04-28T05:57:36.072Z,-55.00
2018-04-28T05:58:36.075Z,-55.00
2018-04-28T05:59:36.093Z,-55.00
2018-04-28T06:00:36.106Z,-55.00
2018-04-28T06:01:36.114Z,-55.00
2018-04-28T06:02:36.133Z,-55.00
2018-04-28T06:03:36.136Z,-55.00
2018-04-28T06:04:36.141Z,-55.00
2018-04-28T06:05:36.154Z,-55.00
2018-04-28T06:06:36.167Z,-55.00
2018-04-28T06:07:36.175Z,-55.00
2018-04-28T06:08:36.180Z,-55.00
2018-04-28T06:09:36.189Z,-55.00
2018-04-28T06:10:36.206Z,-55.00
2018-04-28T06:11:36.226Z,-55.00
2018-04-28T06:12:36.224Z,-55.00
2018-04-28T06:13:36.247Z,-55.00
2018-04-28T06:14:36.248Z,-55.00
2018-04-28T06:15:36.255Z,-55.00
2018-04-28T06:16:36.271Z,-55.00
2018-04-28T06:17:36.280Z,-55.00
2018-04-28T06:18:36.288Z,-55.00
2018-04-28T06:19:36.301Z,-55.00
2018-04-28T06:20:36.309Z,-55.00
2018-04-28T06:21:36.318Z,-55.00
2018-04-28T06:22:36.327Z,-55.00
2018-04-28T06:23:36.348Z,-55.00
2018-04-28T06:24:36.351Z,-55.00
2018-04-28T06:25:36.364Z,-55.00
2018-04-28T06:26:36.375Z,-55.00
2018-04-28T06:27:36.388Z,-55.00
2018-04-28T06:28:36.391Z,-55.00
2018-04-28T06:29:36.409Z,-55.00
2018-04-28T06:30:36.412Z,-55.00
2018-04-28T06:31:36.426Z,-55.00
2018-04-28T06:32:36.448Z,-55.00
2018-04-28T06:33:36.447Z,-55.00
2018-04-28T06:34:36.457Z,-55.00
2018-04-28T06:35:36.466Z,-55.00
2018-04-28T06:36:36.479Z,-55.00
2018-04-28T06:37:36.486Z,-55.00
2018-04-28T06:38:36.506Z,-57.00
2018-04-28T06:39:36.514Z,-53.00
2018-04-28T06:40:36.519Z,-54.00
2018-04-28T06:41:36.528Z,-53.00
2018-04-28T06:42:36.535Z,-52.00
2018-04-28T06:43:36.548Z,-54.00
2018-04-28T06:44:36.563Z,-53.00
2018-04-28T06:45:36.573Z,-55.00
2018-04-28T06:46:36.643Z,-54.00
2018-04-28T06:47:36.590Z,-52.00
2018-04-28T06:48:36.597Z,-52.00
2018-04-28T06:49:36.622Z,-53.00
2018-04-28T06:50:36.627Z,-54.00
2018-04-28T06:51:36.633Z,-54.00
2018-04-28T06:52:36.646Z,-53.00
2018-04-28T06:53:36.653Z,-52.00
2018-04-28T06:54:36.660Z,-52.00
2018-04-28T06:55:36.674Z,-53.00
2018-04-28T06:56:36.689Z,-54.00
2018-04-28T06:57:36.699Z,-53.00
2018-04-28T06:58:36.747Z,-53.00
2018-04-28T06:59:36.717Z,-55.00
2018-04-28T07:00:36.733Z,-53.00
2018-04-28T07:01:36.735Z,-53.00
2018-04-28T07:02:36.746Z,-54.00
2018-04-28T07:03:36.752Z,-54.00
2018-04-28T07:04:36.851Z,-55.00
2018-04-28T07:05:36.774Z,-55.00
2018-04-28T07:06:36.787Z,-55.00
2018-04-28T07:08:19.087Z,-61.00
2018-04-28T07:09:19.057Z,-62.00
2018-04-28T07:11:13.462Z,-62.00
2018-04-28T07:12:13.443Z,-54.00
2018-04-28T07:14:07.868Z,-55.00
2018-04-28T07:15:07.840Z,-60.00
2018-04-28T07:17:02.229Z,-61.00
2018-04-28T07:18:02.239Z,-61.00
2018-04-28T07:19:56.647Z,-59.00
2018-04-28T07:20:56.666Z,-61.00
2018-04-28T07:22:51.006Z,-55.00
2018-04-28T15:41:34.929Z,-54.00
2018-04-28T15:42:34.891Z,-61.00
2018-04-28T15:44:29.901Z,-68.00
2018-04-28T15:45:29.879Z,-66.00
2018-04-28T15:46:29.885Z,-64.00
2018-04-28T15:47:29.894Z,-60.00
2018-04-28T15:48:29.909Z,-61.00
2018-04-28T15:49:29.925Z,-52.00
2018-04-28T15:50:29.929Z,-52.00
2018-04-28T15:52:22.076Z,-63.00
2018-04-28T15:53:22.042Z,-62.00
2018-04-28T15:54:22.052Z,-62.00
2018-04-28T15:55:22.154Z,-62.00
2018-04-28T15:56:22.079Z,-62.00
2018-04-28T15:57:22.115Z,-64.00
2018-04-28T15:59:09.430Z,-54.00
2018-04-28T16:00:09.410Z,-48.00
2018-04-28T16:02:03.427Z,-47.00
2018-04-28T16:03:03.408Z,-48.00
2018-04-28T16:04:57.418Z,-49.00
2018-04-28T16:05:57.404Z,-49.00
2018-04-28T16:07:51.387Z,-49.00
2018-04-28T16:08:51.396Z,-49.00
2018-04-28T16:10:45.403Z,-48.00
2018-04-28T16:11:45.388Z,-48.00
2018-04-28T16:13:39.371Z,-48.00
2018-04-28T16:14:39.381Z,-48.00
2018-04-28T16:16:33.412Z,-49.00
2018-04-28T16:17:33.389Z,-48.00
2018-04-28T16:19:27.364Z,-49.00
2018-04-28T16:20:27.370Z,-49.00
2018-04-28T16:22:21.391Z,-48.00
2018-04-28T16:23:21.379Z,-48.00
2018-04-28T16:25:15.394Z,-48.00
2018-04-28T16:26:15.360Z,-48.00
2018-04-28T16:28:09.349Z,-48.00
2018-04-28T16:29:09.355Z,-48.00
2018-04-28T16:31:03.389Z,-48.00
2018-04-28T16:32:03.379Z,-48.00
2018-04-28T16:33:57.369Z,-48.00
2018-04-28T16:34:57.376Z,-48.00
2018-04-28T16:36:51.386Z,-48.00
2018-04-28T16:37:51.366Z,-48.00
2018-04-28T16:39:45.350Z,-48.00
2018-04-28T16:40:45.359Z,-48.00
2018-04-28T16:42:39.366Z,-48.00
2018-04-28T16:43:39.359Z,-48.00
2018-04-28T16:45:34.348Z,-48.00
2018-04-28T16:46:34.343Z,-48.00
2018-04-28T16:48:28.332Z,-48.00
2018-04-28T16:49:28.329Z,-48.00
2018-04-28T16:51:22.339Z,-48.00
2018-04-28T16:52:22.332Z,-48.00
2018-04-28T16:54:16.326Z,-48.00
2018-04-28T16:55:16.317Z,-48.00
2018-04-28T16:57:11.319Z,-48.00
2018-04-28T16:58:11.310Z,-48.00
2018-04-28T17:00:05.341Z,-48.00
2018-04-28T17:01:05.323Z,-48.00
2018-04-28T17:02:59.322Z,-48.00
2018-04-28T17:03:59.310Z,-47.00
2018-04-28T17:05:38.681Z,-55.00
2018-04-28T17:06:38.761Z,-53.00
2018-04-28T17:07:44.671Z,-54.00
2018-04-28T17:08:44.676Z,-54.00
